createdAt,value
2019-04-20T00:01:01.544Z,67.82
2019-04-20T00:03:38.307Z,67.70
2019-04-20T00:06:06.974Z,67.13
2019-04-20T00:08:41.496Z,68.48
2019-04-20T00:11:19.756Z,69.58
2019-04-20T00:13:55.232Z,69.10
2019-04-20T00:16:18.922Z,69.56
2019-04-20T00:18:53.949Z,70.49
2019-04-20T00:21:49.615Z,71.54
2019-04-20T00:24:23.353Z,71.27
2019-04-20T00:29:47.944Z,71.79
2019-04-20T00:32:11.219Z,72.86
2019-04-20T00:34:35.612Z,73.24
2019-04-20T00:37:05.848Z,70.72
2019-04-20T00:39:38.251Z,71.63
2019-04-20T00:42:11.711Z,72.70
2019-04-20T00:44:45.774Z,73.03
2019-04-20T00:47:32.368Z,72.31
2019-04-20T00:50:04.056Z,72.63
2019-04-20T00:52:32.854Z,72.48
2019-04-20T00:54:53.957Z,72.07
2019-04-20T00:57:36.879Z,72.06
2019-04-20T01:00:17.660Z,72.70
2019-04-20T01:02:43.342Z,74.47
2019-04-20T01:05:22.887Z,75.18
2019-04-20T01:07:48.529Z,73.75
2019-04-20T01:10:17.304Z,72.40
2019-04-20T01:12:52.083Z,73.10
2019-04-20T01:15:28.101Z,73.67
2019-04-20T01:17:54.490Z,74.85
2019-04-20T01:20:26.364Z,75.85
2019-04-20T01:23:06.343Z,76.16
2019-04-20T01:25:36.015Z,74.96
2019-04-20T01:28:24.582Z,73.09
2019-04-20T01:30:44.625Z,72.45
2019-04-20T01:33:25.912Z,72.97
2019-04-20T01:35:58.284Z,72.66
2019-04-20T01:38:38.851Z,72.36
2019-04-20T01:40:52.715Z,73.60
2019-04-20T01:43:24.749Z,74.33
2019-04-20T01:46:05.117Z,75.05
2019-04-20T01:48:34.022Z,75.27
2019-04-20T01:51:11.815Z,75.31
2019-04-20T01:53:46.712Z,74.83
2019-04-20T01:56:24.490Z,73.83
2019-04-20T01:59:06.263Z,73.43
2019-04-20T02:01:30.913Z,73.97
2019-04-20T02:04:07.347Z,74.11
2019-04-20T02:06:48.845Z,74.28
2019-04-20T02:09:20.473Z,73.71
2019-04-20T02:11:50.853Z,74.11
2019-04-20T02:14:30.788Z,74.94
2019-04-20T02:17:04.437Z,75.43
2019-04-20T02:19:43.114Z,74.48
2019-04-20T02:22:14.932Z,73.93
2019-04-20T02:24:32.512Z,74.05
2019-04-20T02:27:04.178Z,73.17
2019-04-20T02:30:02.504Z,72.62
2019-04-20T02:32:36.495Z,72.92
2019-04-20T02:35:29.908Z,73.77
2019-04-20T02:40:50.907Z,74.57
2019-04-20T02:43:40.477Z,75.86
2019-04-20T02:45:44.250Z,76.22
2019-04-20T02:48:23.595Z,75.92
2019-04-20T02:50:59.657Z,75.20
2019-04-20T02:53:31.048Z,74.65
2019-04-20T02:56:09.045Z,74.99
2019-04-20T02:58:36.382Z,74.44
2019-04-20T03:01:09.617Z,74.90
2019-04-20T03:03:30.688Z,75.29
2019-04-20T03:06:08.656Z,75.49
2019-04-20T03:08:54.526Z,75.52
2019-04-20T03:11:26.217Z,75.70
2019-04-20T03:13:54.561Z,75.70
2019-04-20T03:16:24.273Z,75.69
2019-04-20T03:18:58.435Z,75.97
2019-04-20T03:21:37.588Z,76.39
2019-04-20T03:24:13.214Z,76.62
2019-04-20T03:26:40.784Z,77.00
2019-04-20T03:29:12.843Z,77.24
2019-04-20T03:32:28.825Z,77.22
2019-04-20T03:35:01.075Z,77.55
2019-04-20T03:37:07.072Z,77.55
2019-04-20T03:39:32.458Z,76.76
2019-04-20T03:41:50.271Z,76.25
2019-04-20T03:44:24.403Z,75.28
2019-04-20T03:46:58.048Z,74.68
2019-04-20T03:49:55.052Z,74.24
2019-04-20T03:52:27.480Z,73.72
2019-04-20T03:54:57.097Z,73.30
2019-04-20T03:57:49.820Z,72.82
2019-04-20T04:00:23.278Z,72.28
2019-04-20T04:03:12.604Z,72.02
2019-04-20T04:05:36.865Z,70.45
2019-04-20T04:08:03.145Z,70.14
2019-04-20T04:10:47.177Z,69.10
2019-04-20T04:13:07.276Z,67.60
2019-04-20T04:15:44.274Z,66.74
2019-04-20T04:18:19.691Z,65.28
2019-04-20T04:20:52.147Z,64.39
2019-04-20T04:23:38.051Z,62.22
2019-04-20T04:28:41.079Z,60.15
2019-04-20T04:31:16.389Z,61.00
2019-04-20T04:33:55.819Z,61.11
2019-04-20T04:36:20.811Z,60.73
2019-04-20T04:39:05.413Z,62.54
2019-04-20T04:41:35.477Z,63.83
2019-04-20T04:44:04.468Z,59.96
2019-04-20T04:46:19.109Z,57.71
2019-04-20T04:48:52.879Z,57.27
2019-04-20T04:51:29.451Z,57.34
2019-04-20T04:54:03.685Z,55.83
2019-04-20T04:56:30.854Z,54.05
2019-04-20T04:59:02.721Z,54.78
2019-04-20T05:01:37.005Z,53.53
2019-04-20T05:04:24.779Z,53.14
2019-04-20T05:06:53.537Z,52.30
2019-04-20T05:09:15.432Z,50.34
2019-04-20T05:11:51.767Z,50.87
2019-04-20T05:14:24.424Z,50.87
2019-04-20T05:17:10.163Z,50.19
2019-04-20T05:19:50.065Z,48.07
2019-04-20T05:22:23.002Z,48.07
2019-04-20T05:25:03.489Z,46.61
2019-04-20T05:27:44.055Z,45.59
2019-04-20T05:29:54.928Z,44.44
2019-04-20T05:32:36.137Z,43.27
2019-04-20T05:35:24.064Z,41.55
2019-04-20T05:38:02.706Z,39.79
2019-04-20T05:40:27.505Z,38.04
2019-04-20T05:43:15.501Z,37.89
2019-04-20T05:45:46.335Z,37.48
2019-04-20T05:48:19.467Z,37.59
2019-04-20T05:50:58.721Z,36.89
2019-04-20T05:53:44.380Z,36.03
2019-04-20T05:56:17.386Z,34.87
2019-04-20T05:58:49.413Z,34.60
2019-04-20T06:01:34.606Z,34.63
2019-04-20T06:03:57.712Z,34.24
2019-04-20T06:06:37.579Z,33.73
2019-04-20T06:09:22.638Z,31.56
2019-04-20T06:12:03.769Z,32.05
2019-04-20T06:14:33.106Z,33.82
2019-04-20T06:17:23.857Z,32.97
2019-04-20T06:19:58.256Z,32.96
2019-04-20T06:22:31.120Z,32.98
2019-04-20T06:25:19.590Z,32.02
2019-04-20T06:27:41.075Z,32.17
2019-04-20T06:30:05.916Z,31.65
2019-04-20T06:33:34.240Z,30.71
2019-04-20T06:38:52.314Z,30.91
2019-04-20T06:41:14.046Z,31.05
2019-04-20T06:43:42.075Z,30.06
2019-04-20T06:46:09.555Z,29.56
2019-04-20T06:48:45.812Z,31.03
2019-04-20T06:51:18.681Z,32.70
2019-04-20T06:53:49.953Z,32.27
2019-04-20T06:56:35.400Z,33.20
2019-04-20T06:59:12.611Z,29.91
2019-04-20T07:01:48.705Z,29.88
2019-04-20T07:04:37.631Z,29.21
2019-04-20T07:06:59.205Z,30.30
2019-04-20T07:09:30.905Z,30.09
2019-04-20T07:11:50.594Z,28.23
2019-04-20T07:14:17.269Z,28.86
2019-04-20T07:17:07.186Z,27.48
2019-04-20T07:19:44.461Z,28.77
2019-04-20T07:22:32.143Z,27.87
2019-04-20T07:25:06.465Z,26.15
2019-04-20T07:27:30.804Z,26.85
2019-04-20T07:30:04.106Z,26.15
2019-04-20T07:32:43.812Z,27.62
2019-04-20T07:35:08.397Z,28.31
2019-04-20T07:40:33.331Z,29.66
2019-04-20T07:43:01.575Z,30.18
2019-04-20T07:45:35.087Z,30.69
2019-04-20T07:48:11.491Z,32.85
2019-04-20T07:50:35.791Z,31.31
2019-04-20T07:53:12.228Z,29.75
2019-04-20T07:55:56.352Z,29.02
2019-04-20T07:58:17.203Z,28.60
2019-04-20T08:01:07.845Z,28.66
2019-04-20T08:03:39.072Z,28.17
2019-04-20T08:06:14.492Z,28.44
2019-04-20T08:08:53.130Z,27.40
2019-04-20T08:11:32.163Z,28.22
2019-04-20T08:14:14.535Z,27.11
2019-04-20T08:16:47.082Z,25.36
2019-04-20T08:19:10.481Z,24.30
2019-04-20T08:21:47.289Z,24.88
2019-04-20T08:24:17.627Z,24.02
2019-04-20T08:26:41.353Z,23.55
2019-04-20T08:29:29.089Z,22.77
2019-04-20T08:32:25.964Z,22.41
2019-04-20T08:34:59.446Z,20.75
2019-04-20T08:37:34.401Z,22.91
2019-04-20T08:40:07.467Z,23.58
2019-04-20T08:42:49.734Z,23.75
2019-04-20T08:45:20.143Z,22.59
2019-04-20T08:47:49.995Z,21.57
2019-04-20T08:53:11.163Z,24.03
2019-04-20T08:55:26.331Z,23.92
2019-04-20T08:57:39.986Z,23.91
2019-04-20T09:00:11.225Z,25.16
2019-04-20T09:02:51.647Z,23.62
2019-04-20T09:05:32.625Z,24.38
2019-04-20T09:08:00.535Z,26.03
2019-04-20T09:10:42.405Z,25.11
2019-04-20T09:13:08.366Z,24.44
2019-04-20T09:15:29.977Z,24.23
2019-04-20T09:18:20.780Z,24.75
2019-04-20T09:20:48.478Z,24.61
2019-04-20T09:23:26.608Z,24.73
2019-04-20T09:26:06.224Z,25.06
2019-04-20T09:28:32.073Z,25.74
2019-04-20T09:31:11.915Z,25.84
2019-04-20T09:34:02.767Z,23.32
2019-04-20T09:36:42.007Z,21.48
2019-04-20T09:39:17.700Z,20.42
2019-04-20T09:42:01.439Z,20.22
2019-04-20T09:44:37.523Z,20.13
2019-04-20T09:47:07.364Z,21.79
2019-04-20T09:49:52.913Z,21.41
2019-04-20T09:52:28.272Z,20.63
2019-04-20T09:54:58.951Z,21.31
2019-04-20T09:57:41.039Z,22.82
2019-04-20T10:00:05.394Z,21.72
2019-04-20T10:02:29.285Z,22.21
2019-04-20T10:05:01.907Z,20.61
2019-04-20T10:07:35.619Z,19.71
2019-04-20T10:10:21.705Z,18.82
2019-04-20T10:12:43.950Z,17.10
2019-04-20T10:15:19.464Z,18.83
2019-04-20T10:17:49.786Z,19.28
2019-04-20T10:20:28.357Z,17.96
2019-04-20T10:22:54.423Z,17.24
2019-04-20T10:25:26.667Z,17.20
2019-04-20T10:27:57.981Z,17.67
2019-04-20T10:30:30.588Z,19.46
2019-04-20T10:33:03.560Z,19.59
2019-04-20T10:35:36.945Z,20.52
2019-04-20T10:38:31.077Z,20.02
2019-04-20T10:41:12.652Z,18.35
2019-04-20T10:43:36.789Z,19.75
2019-04-20T10:46:10.983Z,20.38
2019-04-20T10:48:48.021Z,19.59
2019-04-20T10:51:15.611Z,18.39
2019-04-20T10:53:48.392Z,17.38
2019-04-20T10:56:21.203Z,16.49
2019-04-20T10:58:53.825Z,15.56
2019-04-20T11:01:25.393Z,16.81
2019-04-20T11:03:56.621Z,16.84
2019-04-20T11:06:28.942Z,16.65
2019-04-20T11:09:00.449Z,16.18
2019-04-20T11:11:35.328Z,16.55
2019-04-20T11:14:14.446Z,15.92
2019-04-20T11:16:42.456Z,16.01
2019-04-20T11:19:13.691Z,17.58
2019-04-20T11:21:48.723Z,17.24
2019-04-20T11:24:20.498Z,17.67
2019-04-20T11:26:52.092Z,17.09
2019-04-20T11:29:24.240Z,16.21
2019-04-20T11:31:56.490Z,16.63
2019-04-20T11:34:33.293Z,18.55
2019-04-20T11:37:01.524Z,18.56
2019-04-20T11:39:34.916Z,18.89
2019-04-20T11:42:09.836Z,17.91
2019-04-20T11:44:42.179Z,17.25
2019-04-20T11:47:14.717Z,16.35
2019-04-20T11:49:46.047Z,16.40
2019-04-20T11:52:20.292Z,18.17
2019-04-20T11:54:50.589Z,19.28
2019-04-20T11:57:22.052Z,20.08
2019-04-20T11:59:57.082Z,21.17
2019-04-20T12:02:37.128Z,20.78
2019-04-20T12:05:21.521Z,19.80
2019-04-20T12:07:55.415Z,19.32
2019-04-20T12:10:28.330Z,18.06
2019-04-20T12:13:03.840Z,16.50
2019-04-20T12:15:37.462Z,16.08
2019-04-20T12:18:09.517Z,16.91
2019-04-20T12:20:42.928Z,16.85
2019-04-20T12:23:14.230Z,17.57
2019-04-20T12:25:46.308Z,17.97
2019-04-20T12:28:17.979Z,18.89
2019-04-20T12:30:49.198Z,20.49
2019-04-20T12:33:21.853Z,20.31
2019-04-20T12:35:54.201Z,20.02
2019-04-20T12:38:25.491Z,19.20
2019-04-20T12:40:57.801Z,16.79
2019-04-20T12:43:29.878Z,16.82
2019-04-20T12:46:02.086Z,17.59
2019-04-20T12:48:35.590Z,17.03
2019-04-20T12:51:08.479Z,16.25
2019-04-20T12:53:40.536Z,15.34
2019-04-20T12:56:12.813Z,14.45
2019-04-20T12:58:45.153Z,14.36
2019-04-20T13:01:19.326Z,14.63
2019-04-20T13:03:49.935Z,14.29
2019-04-20T13:06:21.721Z,15.19
2019-04-20T13:08:56.837Z,15.20
2019-04-20T13:11:34.709Z,15.61
2019-04-20T13:14:48.566Z,15.79
2019-04-20T13:17:22.068Z,15.40
2019-04-20T13:19:53.440Z,14.59
2019-04-20T13:22:25.357Z,14.99
2019-04-20T13:24:57.034Z,14.53
2019-04-20T13:27:29.162Z,15.11
2019-04-20T13:30:01.273Z,14.11
2019-04-20T13:32:33.987Z,13.64
2019-04-20T13:35:08.013Z,13.47
2019-04-20T13:37:41.755Z,13.35
2019-04-20T13:40:13.623Z,13.54
2019-04-20T13:42:45.637Z,14.33
2019-04-20T13:45:19.085Z,14.47
2019-04-20T13:47:52.739Z,14.83
2019-04-20T13:50:26.251Z,14.73
2019-04-20T13:52:58.582Z,14.43
2019-04-20T13:55:30.235Z,13.97
2019-04-20T13:58:20.107Z,13.32
2019-04-20T14:00:57.248Z,13.53
2019-04-20T14:03:30.385Z,13.18
2019-04-20T14:06:02.634Z,14.39
2019-04-20T14:08:35.640Z,15.75
2019-04-20T14:11:07.320Z,16.90
2019-04-20T14:13:47.155Z,16.26
2019-04-20T14:16:14.399Z,16.42
2019-04-20T14:18:45.457Z,16.83
2019-04-20T14:21:18.492Z,17.77
2019-04-20T14:23:50.839Z,16.89
2019-04-20T14:26:22.991Z,17.22
2019-04-20T14:28:54.783Z,17.11
2019-04-20T14:31:26.163Z,17.17
2019-04-20T14:33:59.068Z,17.07
2019-04-20T14:36:30.782Z,16.72
2019-04-20T14:39:02.524Z,17.49
2019-04-20T14:41:36.041Z,17.73
2019-04-20T14:44:07.924Z,17.92
2019-04-20T14:46:39.991Z,17.76
2019-04-20T14:49:10.647Z,16.50
2019-04-20T14:51:41.965Z,16.10
2019-04-20T14:54:14.640Z,15.67
2019-04-20T14:56:45.787Z,15.25
2019-04-20T14:59:31.665Z,15.38
2019-04-20T15:02:10.497Z,15.66
2019-04-20T15:04:45.316Z,15.34
2019-04-20T15:07:16.779Z,14.25
2019-04-20T15:09:50.914Z,13.70
2019-04-20T15:12:36.567Z,13.52
2019-04-20T15:15:08.462Z,13.66
2019-04-20T15:17:51.389Z,13.72
2019-04-20T15:20:25.540Z,13.57
2019-04-20T15:22:59.315Z,14.21
2019-04-20T15:25:31.681Z,14.48
2019-04-20T15:28:02.998Z,14.57
2019-04-20T15:30:34.447Z,14.15
2019-04-20T15:33:07.175Z,14.52
2019-04-20T15:35:38.369Z,14.67
2019-04-20T15:38:11.129Z,14.55
2019-04-20T15:40:42.399Z,14.55
2019-04-20T15:43:17.986Z,14.92
2019-04-20T15:45:47.547Z,14.24
2019-04-20T15:48:19.898Z,14.33
2019-04-20T15:50:51.874Z,15.00
2019-04-20T15:53:23.892Z,16.22
2019-04-20T15:55:57.583Z,16.66
2019-04-20T15:58:30.160Z,16.42
2019-04-20T16:01:02.748Z,17.53
2019-04-20T16:03:39.276Z,18.23
2019-04-20T16:06:13.694Z,17.95
2019-04-20T16:08:48.082Z,18.23
2019-04-20T16:11:19.468Z,18.80
2019-04-20T16:13:53.923Z,19.15
2019-04-20T16:16:23.837Z,19.41
2019-04-20T16:18:56.982Z,20.16
2019-04-20T16:21:32.030Z,21.00
2019-04-20T16:24:04.321Z,21.07
2019-04-20T16:26:47.458Z,20.49
2019-04-20T16:29:19.933Z,20.94
2019-04-20T16:31:52.150Z,20.90
2019-04-20T16:34:23.430Z,21.21
2019-04-20T16:36:56.464Z,20.98
2019-04-20T16:39:28.316Z,22.04
2019-04-20T16:42:00.428Z,21.99
2019-04-20T16:44:31.581Z,22.25
2019-04-20T16:47:04.083Z,22.54
2019-04-20T16:49:35.394Z,23.63
2019-04-20T16:52:07.364Z,23.80
2019-04-20T16:54:39.768Z,23.64
2019-04-20T16:57:12.604Z,23.45
2019-04-20T16:59:48.278Z,23.85
2019-04-20T17:02:19.198Z,24.16
2019-04-20T17:04:52.027Z,24.40
2019-04-20T17:07:28.994Z,24.99
2019-04-20T17:10:00.563Z,25.17
2019-04-20T17:12:33.810Z,25.32
2019-04-20T17:15:09.926Z,25.65
2019-04-20T17:17:41.119Z,25.58
2019-04-20T17:20:13.998Z,25.66
2019-04-20T17:22:48.815Z,25.59
2019-04-20T17:25:24.134Z,25.68
2019-04-20T17:28:04.640Z,25.36
2019-04-20T17:30:54.947Z,25.46
2019-04-20T17:33:32.572Z,25.88
2019-04-20T17:36:14.528Z,26.23
2019-04-20T17:38:45.872Z,26.56
2019-04-20T17:41:36.222Z,28.08
2019-04-20T17:44:05.477Z,27.58
2019-04-20T17:46:35.753Z,29.40
2019-04-20T17:49:09.625Z,27.31
2019-04-20T17:51:54.841Z,26.91
2019-04-20T17:54:17.743Z,27.42
2019-04-20T17:56:52.002Z,28.81
2019-04-20T17:59:24.388Z,35.56
2019-04-20T18:02:25.679Z,36.34
2019-04-20T18:05:22.308Z,39.73
2019-04-20T18:07:45.341Z,36.60
2019-04-20T18:10:17.529Z,36.70
2019-04-20T18:12:41.862Z,35.48
2019-04-20T18:15:29.357Z,35.00
2019-04-20T18:18:00.256Z,33.87
2019-04-20T18:20:25.042Z,36.06
2019-04-20T18:22:57.323Z,37.98
2019-04-20T18:25:56.264Z,38.14
2019-04-20T18:28:14.594Z,34.37
2019-04-20T18:30:51.384Z,34.04
2019-04-20T18:33:18.845Z,33.00
2019-04-20T18:35:52.235Z,32.04
2019-04-20T18:38:30.529Z,32.75
2019-04-20T18:41:05.785Z,34.43
2019-04-20T18:43:43.914Z,34.61
2019-04-20T18:46:21.695Z,34.47
2019-04-20T18:49:03.530Z,36.24
2019-04-20T18:51:13.495Z,38.17
2019-04-20T18:53:48.231Z,40.39
2019-04-20T18:56:25.637Z,41.72
2019-04-20T18:58:53.345Z,42.34
2019-04-20T19:01:31.938Z,43.98
2019-04-20T19:04:03.673Z,41.98
2019-04-20T19:06:38.131Z,41.05
2019-04-20T19:09:16.680Z,36.27
2019-04-20T19:11:50.862Z,36.58
2019-04-20T19:14:38.252Z,43.41
2019-04-20T19:17:40.421Z,45.23
2019-04-20T19:20:08.600Z,44.35
2019-04-20T19:22:41.935Z,43.76
2019-04-20T19:25:18.310Z,40.48
2019-04-20T19:27:53.555Z,41.42
2019-04-20T19:30:31.213Z,41.96
2019-04-20T19:33:11.360Z,39.35
2019-04-20T19:35:40.441Z,36.69
2019-04-20T19:38:10.271Z,36.68
2019-04-20T19:40:47.803Z,37.65
2019-04-20T19:43:20.811Z,39.82
2019-04-20T19:46:25.580Z,40.11
2019-04-20T19:48:29.238Z,39.17
2019-04-20T19:51:12.768Z,40.05
2019-04-20T19:53:42.940Z,39.27
2019-04-20T19:56:07.757Z,39.43
2019-04-20T19:58:39.708Z,37.81
2019-04-20T20:01:03.586Z,36.49
2019-04-20T20:03:37.605Z,38.51
2019-04-20T20:06:18.555Z,39.67
2019-04-20T20:08:55.244Z,39.25
2019-04-20T20:11:29.526Z,40.03
2019-04-20T20:13:57.065Z,39.96
2019-04-20T20:16:50.678Z,40.68
2019-04-20T20:19:13.313Z,41.05
2019-04-20T20:21:54.452Z,42.01
2019-04-20T20:24:14.262Z,42.36
2019-04-20T20:26:52.556Z,43.93
2019-04-20T20:29:25.098Z,43.08
2019-04-20T20:32:05.212Z,43.29
2019-04-20T20:34:32.427Z,44.43
2019-04-20T20:37:00.585Z,49.56
2019-04-20T20:39:34.402Z,55.59
2019-04-20T20:42:15.167Z,54.85
2019-04-20T20:44:45.765Z,54.10
2019-04-20T20:47:39.799Z,51.76
2019-04-20T20:50:11.301Z,52.63
2019-04-20T20:52:32.383Z,56.17
2019-04-20T20:55:00.764Z,57.34
2019-04-20T20:57:24.797Z,52.66
2019-04-20T21:00:02.452Z,50.52
2019-04-20T21:02:40.169Z,49.83
2019-04-20T21:05:01.918Z,49.02
2019-04-20T21:07:34.335Z,48.10
2019-04-20T21:10:08.299Z,47.96
2019-04-20T21:12:49.360Z,49.34
2019-04-20T21:15:20.995Z,49.23
2019-04-20T21:18:08.386Z,49.39
2019-04-20T21:20:46.537Z,47.95
2019-04-20T21:23:11.590Z,50.05
2019-04-20T21:25:36.104Z,51.18
2019-04-20T21:28:02.666Z,52.81
2019-04-20T21:30:42.780Z,51.01
2019-04-20T21:33:09.773Z,47.87
2019-04-20T21:35:46.404Z,47.04
2019-04-20T21:38:16.526Z,50.68
2019-04-20T21:40:51.305Z,49.10
2019-04-20T21:43:27.871Z,51.39
2019-04-20T21:45:59.728Z,51.42
2019-04-20T21:48:49.285Z,52.54
2019-04-20T21:51:15.253Z,51.02
2019-04-20T21:53:35.331Z,54.25
2019-04-20T21:56:07.999Z,54.97
2019-04-20T21:58:43.640Z,54.40
2019-04-20T22:01:24.314Z,53.32
2019-04-20T22:03:48.045Z,53.39
2019-04-20T22:06:20.283Z,48.82
2019-04-20T22:08:59.793Z,49.35
2019-04-20T22:11:25.962Z,52.27
2019-04-20T22:14:02.189Z,53.83
2019-04-20T22:16:37.800Z,53.37
2019-04-20T22:19:16.019Z,51.68
2019-04-20T22:21:50.225Z,54.03
2019-04-20T22:24:28.744Z,55.73
2019-04-20T22:26:54.922Z,54.42
2019-04-20T22:29:16.251Z,53.29
2019-04-20T22:31:56.738Z,53.21
2019-04-20T22:34:24.573Z,53.01
2019-04-20T22:36:53.866Z,52.34
2019-04-20T22:39:33.653Z,53.21
2019-04-20T22:42:05.645Z,53.95
2019-04-20T22:44:34.355Z,54.56
2019-04-20T22:47:12.405Z,54.49
2019-04-20T22:49:51.476Z,54.54
2019-04-20T22:52:26.950Z,55.48
2019-04-20T22:55:01.287Z,55.75
2019-04-20T22:57:31.808Z,56.08
2019-04-20T23:00:00.598Z,56.89
2019-04-20T23:02:24.892Z,57.35
2019-04-20T23:04:57.089Z,56.96
2019-04-20T23:07:28.535Z,57.42
2019-04-20T23:10:01.992Z,57.63
2019-04-20T23:12:34.047Z,58.40
2019-04-20T23:15:08.198Z,58.32
2019-04-20T23:17:43.392Z,58.33
2019-04-20T23:20:21.105Z,58.28
2019-04-20T23:22:49.376Z,59.00
2019-04-20T23:25:20.954Z,59.20
2019-04-20T23:28:00.552Z,59.44
2019-04-20T23:30:30.217Z,59.03
2019-04-20T23:32:58.007Z,59.06
2019-04-20T23:35:30.370Z,59.06
2019-04-20T23:38:10.454Z,59.60
2019-04-20T23:40:35.299Z,59.36
2019-04-20T23:43:15.282Z,59.65
2019-04-20T23:45:52.942Z,60.03
2019-04-20T23:48:34.879Z,60.91
2019-04-20T23:51:25.002Z,60.62
2019-04-20T23:53:49.205Z,61.20
2019-04-20T23:56:07.908Z,61.58
2019-04-20T23:58:44.495Z,61.69
